sensor_id;sensor_type;location;lat;lon;timestamp;pressure;altitude;pressure_sealevel;temperature;humidity
64053;BME280;50299;49.524;8.536;2023-05-22T00:00:13;100074.72;;;13.27;67.02
64053;BME280;50299;49.524;8.536;2023-05-22T00:02:39;100073.56;;;13.44;68.07
64053;BME280;50299;49.524;8.536;2023-05-22T00:05:13;100065.28;;;13.60;67.74
64053;BME280;50299;49.524;8.536;2023-05-22T00:07:40;100069.03;;;13.67;65.57
64053;BME280;50299;49.524;8.536;2023-05-22T00:10:09;100071.97;;;13.43;65.14
64053;BME280;50299;49.524;8.536;2023-05-22T00:12:35;100067.75;;;13.17;66.59
64053;BME280;50299;49.524;8.536;2023-05-22T00:15:05;100069.28;;;13.30;65.94
64053;BME280;50299;49.524;8.536;2023-05-22T00:17:31;100074.81;;;13.30;65.45
64053;BME280;50299;49.524;8.536;2023-05-22T00:19:59;100069.88;;;13.08;66.02
64053;BME280;50299;49.524;8.536;2023-05-22T00:22:36;100070.22;;;12.78;65.92
64053;BME280;50299;49.524;8.536;2023-05-22T00:25:10;100069.44;;;12.78;69.10
64053;BME280;50299;49.524;8.536;2023-05-22T00:27:36;100055.56;;;12.78;67.12
64053;BME280;50299;49.524;8.536;2023-05-22T00:30:05;100058.19;;;12.87;66.95
64053;BME280;50299;49.524;8.536;2023-05-22T00:32:32;100047.53;;;12.89;71.01
64053;BME280;50299;49.524;8.536;2023-05-22T00:34:59;100050.66;;;12.87;69.75
64053;BME280;50299;49.524;8.536;2023-05-22T00:37:25;100057.22;;;12.95;67.38
64053;BME280;50299;49.524;8.536;2023-05-22T00:39:55;100055.41;;;12.87;65.35
64053;BME280;50299;49.524;8.536;2023-05-22T00:42:21;100058.00;;;12.79;66.16
64053;BME280;50299;49.524;8.536;2023-05-22T00:44:48;100060.25;;;12.90;66.74
64053;BME280;50299;49.524;8.536;2023-05-22T00:47:15;100056.25;;;13.03;67.38
64053;BME280;50299;49.524;8.536;2023-05-22T00:49:42;100054.38;;;13.07;67.52
64053;BME280;50299;49.524;8.536;2023-05-22T00:52:10;100056.59;;;13.01;65.27
64053;BME280;50299;49.524;8.536;2023-05-22T00:54:38;100058.06;;;12.83;65.17
64053;BME280;50299;49.524;8.536;2023-05-22T00:57:05;100059.44;;;12.61;66.02
64053;BME280;50299;49.524;8.536;2023-05-22T00:59:32;100058.44;;;12.41;67.31
64053;BME280;50299;49.524;8.536;2023-05-22T01:01:58;100063.72;;;12.18;66.36
64053;BME280;50299;49.524;8.536;2023-05-22T01:04:25;100059.78;;;12.07;68.14
64053;BME280;50299;49.524;8.536;2023-05-22T01:06:52;100057.28;;;12.02;68.17
64053;BME280;50299;49.524;8.536;2023-05-22T01:09:19;100066.34;;;12.27;70.59
64053;BME280;50299;49.524;8.536;2023-05-22T01:17:49;100063.81;;;12.62;66.14
64053;BME280;50299;49.524;8.536;2023-05-22T01:20:40;100066.06;;;12.44;66.25
64053;BME280;50299;49.524;8.536;2023-05-22T01:24:11;100054.78;;;12.25;66.32
64053;BME280;50299;49.524;8.536;2023-05-22T01:29:14;100062.22;;;12.49;68.27
64053;BME280;50299;49.524;8.536;2023-05-22T01:31:47;100061.91;;;12.50;66.67
64053;BME280;50299;49.524;8.536;2023-05-22T01:34:16;100065.47;;;12.63;70.54
64053;BME280;50299;49.524;8.536;2023-05-22T01:36:45;100063.59;;;12.67;65.60
64053;BME280;50299;49.524;8.536;2023-05-22T01:39:13;100069.69;;;12.61;65.10
64053;BME280;50299;49.524;8.536;2023-05-22T01:41:40;100066.28;;;12.51;66.00
64053;BME280;50299;49.524;8.536;2023-05-22T01:44:07;100070.59;;;12.37;66.46
64053;BME280;50299;49.524;8.536;2023-05-22T01:46:33;100063.88;;;11.73;67.02
64053;BME280;50299;49.524;8.536;2023-05-22T01:49:00;100059.34;;;10.98;70.85
64053;BME280;50299;49.524;8.536;2023-05-22T01:54:29;100061.34;;;11.22;70.92
64053;BME280;50299;49.524;8.536;2023-05-22T01:57:18;100071.09;;;11.65;71.08
64053;BME280;50299;49.524;8.536;2023-05-22T01:59:48;100080.59;;;11.89;68.34
64053;BME280;50299;49.524;8.536;2023-05-22T02:02:20;100077.78;;;12.01;66.73
64053;BME280;50299;49.524;8.536;2023-05-22T02:04:52;100073.28;;;12.08;67.09
64053;BME280;50299;49.524;8.536;2023-05-22T02:07:21;100071.00;;;12.11;66.42
64053;BME280;50299;49.524;8.536;2023-05-22T02:09:50;100075.84;;;12.14;65.43
64053;BME280;50299;49.524;8.536;2023-05-22T02:12:19;100074.09;;;12.09;66.81
64053;BME280;50299;49.524;8.536;2023-05-22T02:14:46;100079.84;;;11.67;68.50
64053;BME280;50299;49.524;8.536;2023-05-22T02:17:13;100075.06;;;11.76;70.19
64053;BME280;50299;49.524;8.536;2023-05-22T02:19:39;100075.50;;;11.91;68.50
64053;BME280;50299;49.524;8.536;2023-05-22T02:22:06;100077.59;;;11.94;67.58
64053;BME280;50299;49.524;8.536;2023-05-22T02:24:35;100072.97;;;11.86;66.79
64053;BME280;50299;49.524;8.536;2023-05-22T02:27:02;100072.63;;;11.87;69.60
64053;BME280;50299;49.524;8.536;2023-05-22T02:29:29;100071.56;;;11.92;67.41
64053;BME280;50299;49.524;8.536;2023-05-22T02:31:56;100080.47;;;11.97;66.94
64053;BME280;50299;49.524;8.536;2023-05-22T02:34:22;100079.19;;;12.07;67.10
64053;BME280;50299;49.524;8.536;2023-05-22T02:36:52;100072.97;;;12.10;69.50
64053;BME280;50299;49.524;8.536;2023-05-22T02:39:18;100077.69;;;12.22;66.42
64053;BME280;50299;49.524;8.536;2023-05-22T02:41:44;100083.31;;;12.25;67.04
64053;BME280;50299;49.524;8.536;2023-05-22T02:44:11;100076.63;;;12.26;65.19
64053;BME280;50299;49.524;8.536;2023-05-22T02:46:38;100080.34;;;12.18;65.06
64053;BME280;50299;49.524;8.536;2023-05-22T02:49:04;100077.09;;;12.04;66.71
64053;BME280;50299;49.524;8.536;2023-05-22T02:51:31;100080.81;;;11.96;67.48
64053;BME280;50299;49.524;8.536;2023-05-22T02:53:57;100084.25;;;12.05;68.86
64053;BME280;50299;49.524;8.536;2023-05-22T02:56:23;100081.59;;;12.21;68.02
64053;BME280;50299;49.524;8.536;2023-05-22T02:58:53;100076.78;;;12.46;67.93
64053;BME280;50299;49.524;8.536;2023-05-22T03:01:19;100080.06;;;12.36;66.12
64053;BME280;50299;49.524;8.536;2023-05-22T03:03:47;100085.78;;;12.02;66.67
64053;BME280;50299;49.524;8.536;2023-05-22T03:06:14;100083.38;;;11.76;68.99
64053;BME280;50299;49.524;8.536;2023-05-22T03:08:41;100088.19;;;11.92;68.37
64053;BME280;50299;49.524;8.536;2023-05-22T03:11:09;100081.97;;;12.07;67.55
64053;BME280;50299;49.524;8.536;2023-05-22T03:13:36;100084.16;;;12.01;66.86
64053;BME280;50299;49.524;8.536;2023-05-22T03:16:03;100084.47;;;11.51;66.95
64053;BME280;50299;49.524;8.536;2023-05-22T03:18:29;100086.94;;;11.07;69.44
64053;BME280;50299;49.524;8.536;2023-05-22T03:20:56;100088.66;;;10.78;70.89
64053;BME280;50299;49.524;8.536;2023-05-22T03:23:25;100095.59;;;10.84;70.73
64053;BME280;50299;49.524;8.536;2023-05-22T03:25:52;100090.16;;;11.09;70.00
64053;BME280;50299;49.524;8.536;2023-05-22T03:28:19;100099.00;;;11.35;68.26
64053;BME280;50299;49.524;8.536;2023-05-22T03:30:47;100098.66;;;11.49;67.49
64053;BME280;50299;49.524;8.536;2023-05-22T03:33:20;100087.94;;;11.60;73.64
64053;BME280;50299;49.524;8.536;2023-05-22T03:35:47;100092.38;;;11.73;69.16
64053;BME280;50299;49.524;8.536;2023-05-22T03:38:13;100095.47;;;11.72;68.55
64053;BME280;50299;49.524;8.536;2023-05-22T03:40:40;100099.94;;;11.64;69.14
64053;BME280;50299;49.524;8.536;2023-05-22T03:43:06;100094.41;;;11.52;66.99
64053;BME280;50299;49.524;8.536;2023-05-22T03:45:33;100106.16;;;11.49;67.99
64053;BME280;50299;49.524;8.536;2023-05-22T03:48:02;100117.34;;;11.52;68.42
64053;BME280;50299;49.524;8.536;2023-05-22T03:50:29;100110.00;;;11.69;67.65
64053;BME280;50299;49.524;8.536;2023-05-22T03:52:59;100105.63;;;11.80;67.12
64053;BME280;50299;49.524;8.536;2023-05-22T03:55:26;100099.50;;;11.87;67.03
64053;BME280;50299;49.524;8.536;2023-05-22T03:57:53;100111.63;;;11.94;67.08
64053;BME280;50299;49.524;8.536;2023-05-22T04:00:19;100104.69;;;12.00;66.26
64053;BME280;50299;49.524;8.536;2023-05-22T04:02:46;100096.16;;;12.05;65.87
64053;BME280;50299;49.524;8.536;2023-05-22T04:05:16;100107.47;;;12.13;66.83
64053;BME280;50299;49.524;8.536;2023-05-22T04:07:42;100105.28;;;12.18;67.08
64053;BME280;50299;49.524;8.536;2023-05-22T04:10:09;100102.81;;;12.29;67.26
64053;BME280;50299;49.524;8.536;2023-05-22T04:12:36;100110.66;;;12.39;66.67
64053;BME280;50299;49.524;8.536;2023-05-22T04:15:03;100119.66;;;12.48;68.08
64053;BME280;50299;49.524;8.536;2023-05-22T04:17:33;100122.28;;;12.57;68.16
64053;BME280;50299;49.524;8.536;2023-05-22T04:20:00;100122.97;;;12.66;68.20
64053;BME280;50299;49.524;8.536;2023-05-22T04:22:27;100118.56;;;12.77;68.43
64053;BME280;50299;49.524;8.536;2023-05-22T04:24:56;100118.75;;;12.85;67.67
64053;BME280;50299;49.524;8.536;2023-05-22T04:27:22;100123.63;;;12.88;67.22
64053;BME280;50299;49.524;8.536;2023-05-22T04:29:50;100123.34;;;12.93;71.68
64053;BME280;50299;49.524;8.536;2023-05-22T04:32:17;100129.44;;;12.98;67.42
64053;BME280;50299;49.524;8.536;2023-05-22T04:34:47;100129.72;;;12.93;66.34
64053;BME280;50299;49.524;8.536;2023-05-22T04:37:20;100134.56;;;12.96;66.31
64053;BME280;50299;49.524;8.536;2023-05-22T04:39:46;100135.00;;;12.98;64.56
64053;BME280;50299;49.524;8.536;2023-05-22T04:42:13;100134.13;;;13.10;67.30
64053;BME280;50299;49.524;8.536;2023-05-22T04:44:40;100135.41;;;13.28;70.59
64053;BME280;50299;49.524;8.536;2023-05-22T04:47:07;100139.88;;;13.45;66.45
64053;BME280;50299;49.524;8.536;2023-05-22T04:49:40;100136.88;;;13.38;63.03
64053;BME280;50299;49.524;8.536;2023-05-22T04:52:07;100133.44;;;13.13;64.96
64053;BME280;50299;49.524;8.536;2023-05-22T04:54:37;100137.22;;;13.21;66.08
64053;BME280;50299;49.524;8.536;2023-05-22T04:57:09;100133.53;;;13.32;70.64
64053;BME280;50299;49.524;8.536;2023-05-22T04:59:36;100133.91;;;13.59;70.10
64053;BME280;50299;49.524;8.536;2023-05-22T05:02:06;100141.16;;;13.79;66.40
64053;BME280;50299;49.524;8.536;2023-05-22T05:04:33;100138.91;;;14.01;70.73
64053;BME280;50299;49.524;8.536;2023-05-22T05:07:00;100135.19;;;14.28;66.48
64053;BME280;50299;49.524;8.536;2023-05-22T05:09:28;100135.75;;;14.34;64.59
64053;BME280;50299;49.524;8.536;2023-05-22T05:11:54;100137.38;;;14.54;67.46
64053;BME280;50299;49.524;8.536;2023-05-22T05:14:27;100131.84;;;14.74;64.46
64053;BME280;50299;49.524;8.536;2023-05-22T05:16:56;100134.84;;;15.04;63.50
64053;BME280;50299;49.524;8.536;2023-05-22T05:19:24;100140.75;;;15.41;64.75
64053;BME280;50299;49.524;8.536;2023-05-22T05:21:55;100135.50;;;15.82;65.67
64053;BME280;50299;49.524;8.536;2023-05-22T05:24:22;100138.19;;;16.24;64.81
64053;BME280;50299;49.524;8.536;2023-05-22T05:26:49;100138.59;;;16.53;64.05
64053;BME280;50299;49.524;8.536;2023-05-22T05:29:16;100135.88;;;16.83;64.58
64053;BME280;50299;49.524;8.536;2023-05-22T05:31:43;100138.59;;;17.13;64.58
64053;BME280;50299;49.524;8.536;2023-05-22T05:34:09;100146.13;;;17.43;63.21
64053;BME280;50299;49.524;8.536;2023-05-22T05:36:36;100144.78;;;17.67;62.99
64053;BME280;50299;49.524;8.536;2023-05-22T05:39:05;100142.63;;;17.94;61.90
64053;BME280;50299;49.524;8.536;2023-05-22T05:41:34;100142.06;;;18.18;59.95
64053;BME280;50299;49.524;8.536;2023-05-22T05:44:05;100147.78;;;18.40;58.67
64053;BME280;50299;49.524;8.536;2023-05-22T05:46:31;100148.34;;;18.70;58.76
64053;BME280;50299;49.524;8.536;2023-05-22T05:48:58;100140.88;;;18.89;57.18
64053;BME280;50299;49.524;8.536;2023-05-22T05:51:28;100150.56;;;19.16;56.18
64053;BME280;50299;49.524;8.536;2023-05-22T05:53:54;100143.03;;;19.38;55.62
64053;BME280;50299;49.524;8.536;2023-05-22T05:56:21;100145.47;;;19.51;52.74
64053;BME280;50299;49.524;8.536;2023-05-22T05:58:47;100146.28;;;19.62;55.45
64053;BME280;50299;49.524;8.536;2023-05-22T06:01:14;100149.50;;;19.85;54.13
64053;BME280;50299;49.524;8.536;2023-05-22T06:03:41;100155.13;;;20.07;51.64
64053;BME280;50299;49.524;8.536;2023-05-22T06:06:08;100148.31;;;20.36;54.75
64053;BME280;50299;49.524;8.536;2023-05-22T06:08:36;100155.47;;;20.59;52.83
64053;BME280;50299;49.524;8.536;2023-05-22T06:11:02;100152.25;;;20.60;49.72
64053;BME280;50299;49.524;8.536;2023-05-22T06:13:29;100160.66;;;20.71;50.37
64053;BME280;50299;49.524;8.536;2023-05-22T06:15:56;100161.84;;;20.84;50.62
64053;BME280;50299;49.524;8.536;2023-05-22T06:18:27;100160.91;;;21.16;51.88
64053;BME280;50299;49.524;8.536;2023-05-22T06:20:53;100164.03;;;21.39;48.28
64053;BME280;50299;49.524;8.536;2023-05-22T06:23:22;100163.88;;;21.64;47.84
64053;BME280;50299;49.524;8.536;2023-05-22T06:25:48;100162.97;;;21.75;46.00
64053;BME280;50299;49.524;8.536;2023-05-22T06:28:15;100164.84;;;21.92;48.43
64053;BME280;50299;49.524;8.536;2023-05-22T06:30:42;100159.16;;;22.06;47.27
64053;BME280;50299;49.524;8.536;2023-05-22T06:33:08;100159.53;;;22.05;48.22
64053;BME280;50299;49.524;8.536;2023-05-22T06:35:35;100165.03;;;22.23;45.42
64053;BME280;50299;49.524;8.536;2023-05-22T06:38:01;100172.84;;;22.46;46.38
64053;BME280;50299;49.524;8.536;2023-05-22T06:40:34;100162.97;;;22.68;46.21
64053;BME280;50299;49.524;8.536;2023-05-22T06:43:00;100167.88;;;22.95;43.91
64053;BME280;50299;49.524;8.536;2023-05-22T06:45:27;100167.25;;;23.14;41.12
64053;BME280;50299;49.524;8.536;2023-05-22T06:47:54;100161.19;;;23.15;42.46
64053;BME280;50299;49.524;8.536;2023-05-22T06:50:21;100164.41;;;23.18;42.60
64053;BME280;50299;49.524;8.536;2023-05-22T06:52:50;100169.56;;;23.23;41.36
64053;BME280;50299;49.524;8.536;2023-05-22T06:55:17;100159.88;;;23.24;44.00
64053;BME280;50299;49.524;8.536;2023-05-22T06:57:43;100165.66;;;23.17;42.70
64053;BME280;50299;49.524;8.536;2023-05-22T07:00:10;100159.31;;;23.36;41.93
64053;BME280;50299;49.524;8.536;2023-05-22T07:02:39;100167.84;;;23.59;45.32
64053;BME280;50299;49.524;8.536;2023-05-22T07:05:06;100163.75;;;23.91;44.50
64053;BME280;50299;49.524;8.536;2023-05-22T07:07:37;100170.94;;;23.96;40.27
64053;BME280;50299;49.524;8.536;2023-05-22T07:10:04;100173.56;;;24.06;42.58
64053;BME280;50299;49.524;8.536;2023-05-22T07:12:31;100174.50;;;24.23;42.79
64053;BME280;50299;49.524;8.536;2023-05-22T07:14:58;100182.41;;;24.35;41.54
64053;BME280;50299;49.524;8.536;2023-05-22T07:17:25;100180.47;;;24.52;40.75
64053;BME280;50299;49.524;8.536;2023-05-22T07:19:52;100180.25;;;24.63;40.34
64053;BME280;50299;49.524;8.536;2023-05-22T07:22:19;100183.16;;;24.79;39.10
64053;BME280;50299;49.524;8.536;2023-05-22T07:24:50;100183.53;;;24.81;39.90
64053;BME280;50299;49.524;8.536;2023-05-22T07:27:17;100185.03;;;24.66;36.77
64053;BME280;50299;49.524;8.536;2023-05-22T07:29:44;100186.81;;;24.36;41.49
64053;BME280;50299;49.524;8.536;2023-05-22T07:32:14;100184.47;;;23.81;37.17
64053;BME280;50299;49.524;8.536;2023-05-22T07:34:43;100177.38;;;23.42;38.95
64053;BME280;50299;49.524;8.536;2023-05-22T07:37:11;100180.19;;;23.69;41.39
64053;BME280;50299;49.524;8.536;2023-05-22T07:39:40;100180.69;;;24.14;41.53
64053;BME280;50299;49.524;8.536;2023-05-22T07:42:08;100183.97;;;24.36;41.03
64053;BME280;50299;49.524;8.536;2023-05-22T07:44:39;100182.81;;;24.77;42.93
64053;BME280;50299;49.524;8.536;2023-05-22T07:47:06;100172.09;;;25.08;36.92
64053;BME280;50299;49.524;8.536;2023-05-22T07:49:35;100189.25;;;24.78;37.22
64053;BME280;50299;49.524;8.536;2023-05-22T07:52:05;100180.41;;;24.76;38.48
64053;BME280;50299;49.524;8.536;2023-05-22T07:54:31;100189.50;;;24.87;38.15
64053;BME280;50299;49.524;8.536;2023-05-22T07:57:04;100183.97;;;25.20;39.78
64053;BME280;50299;49.524;8.536;2023-05-22T07:59:31;100182.50;;;25.51;36.12
64053;BME280;50299;49.524;8.536;2023-05-22T08:01:59;100192.72;;;25.81;35.82
64053;BME280;50299;49.524;8.536;2023-05-22T08:04:26;100183.88;;;25.96;38.35
64053;BME280;50299;49.524;8.536;2023-05-22T08:06:54;100176.81;;;26.04;35.18
64053;BME280;50299;49.524;8.536;2023-05-22T08:09:27;100186.56;;;25.67;32.43
64053;BME280;50299;49.524;8.536;2023-05-22T08:12:07;100183.19;;;25.39;36.63
64053;BME280;50299;49.524;8.536;2023-05-22T08:14:42;100183.84;;;25.07;34.52
64053;BME280;50299;49.524;8.536;2023-05-22T08:17:10;100192.06;;;24.58;34.41
64053;BME280;50299;49.524;8.536;2023-05-22T08:19:40;100192.25;;;24.24;35.71
64053;BME280;50299;49.524;8.536;2023-05-22T08:22:07;100192.63;;;24.49;35.83
64053;BME280;50299;49.524;8.536;2023-05-22T08:24:37;100193.44;;;24.93;36.37
64053;BME280;50299;49.524;8.536;2023-05-22T08:27:04;100193.03;;;25.31;36.85
64053;BME280;50299;49.524;8.536;2023-05-22T08:29:31;100189.03;;;25.48;37.31
64053;BME280;50299;49.524;8.536;2023-05-22T08:31:58;100188.28;;;25.80;36.61
64053;BME280;50299;49.524;8.536;2023-05-22T08:34:27;100188.13;;;26.20;33.52
64053;BME280;50299;49.524;8.536;2023-05-22T08:36:57;100187.94;;;26.27;33.92
64053;BME280;50299;49.524;8.536;2023-05-22T08:39:27;100182.03;;;26.05;35.54
64053;BME280;50299;49.524;8.536;2023-05-22T08:41:54;100188.66;;;26.48;35.74
64053;BME280;50299;49.524;8.536;2023-05-22T08:44:22;100196.19;;;26.83;31.32
64053;BME280;50299;49.524;8.536;2023-05-22T08:46:51;100184.75;;;26.87;34.89
64053;BME280;50299;49.524;8.536;2023-05-22T08:49:20;100181.88;;;27.03;30.89
64053;BME280;50299;49.524;8.536;2023-05-22T08:51:53;100175.75;;;27.18;33.25
64053;BME280;50299;49.524;8.536;2023-05-22T08:54:25;100171.44;;;27.26;30.68
64053;BME280;50299;49.524;8.536;2023-05-22T08:56:54;100175.00;;;27.43;31.77
64053;BME280;50299;49.524;8.536;2023-05-22T08:59:23;100173.22;;;27.49;30.35
64053;BME280;50299;49.524;8.536;2023-05-22T09:01:52;100174.88;;;27.46;32.75
64053;BME280;50299;49.524;8.536;2023-05-22T09:04:20;100171.84;;;27.53;34.24
64053;BME280;50299;49.524;8.536;2023-05-22T09:06:49;100174.00;;;27.62;32.60
64053;BME280;50299;49.524;8.536;2023-05-22T09:09:16;100173.50;;;27.89;33.56
64053;BME280;50299;49.524;8.536;2023-05-22T09:11:43;100167.97;;;27.86;31.55
64053;BME280;50299;49.524;8.536;2023-05-22T09:14:10;100168.09;;;27.82;33.99
64053;BME280;50299;49.524;8.536;2023-05-22T09:16:44;100172.84;;;28.11;33.85
64053;BME280;50299;49.524;8.536;2023-05-22T09:19:12;100168.25;;;28.26;30.65
64053;BME280;50299;49.524;8.536;2023-05-22T09:21:40;100165.72;;;28.06;31.06
64053;BME280;50299;49.524;8.536;2023-05-22T09:24:07;100165.34;;;27.91;31.26
64053;BME280;50299;49.524;8.536;2023-05-22T09:26:44;100165.00;;;27.89;30.73
64053;BME280;50299;49.524;8.536;2023-05-22T09:29:11;100159.34;;;27.76;30.10
64053;BME280;50299;49.524;8.536;2023-05-22T09:31:41;100157.97;;;27.81;32.56
64053;BME280;50299;49.524;8.536;2023-05-22T09:34:09;100162.03;;;28.05;31.94
64053;BME280;50299;49.524;8.536;2023-05-22T09:36:36;100162.41;;;27.82;29.79
64053;BME280;50299;49.524;8.536;2023-05-22T09:39:03;100155.00;;;27.46;32.35
64053;BME280;50299;49.524;8.536;2023-05-22T09:41:34;100164.00;;;27.70;30.25
64053;BME280;50299;49.524;8.536;2023-05-22T09:44:01;100162.06;;;27.80;29.53
64053;BME280;50299;49.524;8.536;2023-05-22T09:46:38;100161.97;;;27.58;30.94
64053;BME280;50299;49.524;8.536;2023-05-22T09:49:05;100160.94;;;27.52;33.63
64053;BME280;50299;49.524;8.536;2023-05-22T09:51:33;100161.94;;;27.84;32.98
64053;BME280;50299;49.524;8.536;2023-05-22T09:54:02;100163.19;;;27.95;32.71
64053;BME280;50299;49.524;8.536;2023-05-22T09:56:30;100159.91;;;27.84;31.46
64053;BME280;50299;49.524;8.536;2023-05-22T09:59:07;100159.34;;;28.02;31.29
64053;BME280;50299;49.524;8.536;2023-05-22T10:01:38;100151.16;;;27.78;30.29
64053;BME280;50299;49.524;8.536;2023-05-22T10:04:11;100152.78;;;27.67;32.21
64053;BME280;50299;49.524;8.536;2023-05-22T10:06:41;100148.53;;;27.20;32.71
64053;BME280;50299;49.524;8.536;2023-05-22T10:09:13;100155.59;;;26.87;31.23
64053;BME280;50299;49.524;8.536;2023-05-22T10:11:45;100149.50;;;25.45;33.45
64053;BME280;50299;49.524;8.536;2023-05-22T10:14:13;100152.97;;;25.69;35.21
64053;BME280;50299;49.524;8.536;2023-05-22T10:16:40;100145.84;;;25.97;34.64
64053;BME280;50299;49.524;8.536;2023-05-22T10:19:11;100144.59;;;26.14;38.07
64053;BME280;50299;49.524;8.536;2023-05-22T10:21:40;100150.59;;;26.16;33.96
64053;BME280;50299;49.524;8.536;2023-05-22T10:24:08;100154.56;;;25.53;35.27
64053;BME280;50299;49.524;8.536;2023-05-22T10:26:35;100143.53;;;24.83;34.73
64053;BME280;50299;49.524;8.536;2023-05-22T10:29:10;100146.47;;;24.76;34.95
64053;BME280;50299;49.524;8.536;2023-05-22T10:31:41;100148.22;;;24.70;37.47
64053;BME280;50299;49.524;8.536;2023-05-22T10:34:16;100143.41;;;25.10;36.73
64053;BME280;50299;49.524;8.536;2023-05-22T10:37:21;100137.84;;;25.43;36.47
64053;BME280;50299;49.524;8.536;2023-05-22T10:40:00;100130.41;;;25.49;35.70
64053;BME280;50299;49.524;8.536;2023-05-22T10:42:30;100142.72;;;25.75;36.91
64053;BME280;50299;49.524;8.536;2023-05-22T10:45:00;100132.88;;;25.79;33.84
64053;BME280;50299;49.524;8.536;2023-05-22T10:47:27;100122.88;;;25.91;33.49
64053;BME280;50299;49.524;8.536;2023-05-22T10:50:10;100128.91;;;25.44;34.69
64053;BME280;50299;49.524;8.536;2023-05-22T10:52:37;100130.22;;;25.40;33.70
64053;BME280;50299;49.524;8.536;2023-05-22T10:55:09;100122.28;;;25.51;34.98
64053;BME280;50299;49.524;8.536;2023-05-22T10:57:37;100123.97;;;25.81;36.52
64053;BME280;50299;49.524;8.536;2023-05-22T11:00:14;100121.31;;;26.06;34.07
64053;BME280;50299;49.524;8.536;2023-05-22T11:02:43;100116.56;;;26.32;34.68
64053;BME280;50299;49.524;8.536;2023-05-22T11:07:42;100118.22;;;25.68;33.72
64053;BME280;50299;49.524;8.536;2023-05-22T11:10:09;100111.66;;;25.39;36.21
64053;BME280;50299;49.524;8.536;2023-05-22T11:12:35;100120.63;;;25.33;34.03
64053;BME280;50299;49.524;8.536;2023-05-22T11:15:06;100111.72;;;25.35;34.76
64053;BME280;50299;49.524;8.536;2023-05-22T11:17:42;100115.03;;;25.30;33.96
64053;BME280;50299;49.524;8.536;2023-05-22T11:20:22;100106.06;;;25.35;39.20
64053;BME280;50299;49.524;8.536;2023-05-22T11:22:54;100105.28;;;25.83;35.67
64053;BME280;50299;49.524;8.536;2023-05-22T11:25:21;100108.50;;;26.02;32.45
64053;BME280;50299;49.524;8.536;2023-05-22T11:27:47;100107.88;;;25.94;35.11
64053;BME280;50299;49.524;8.536;2023-05-22T11:30:16;100107.16;;;25.74;34.32
64053;BME280;50299;49.524;8.536;2023-05-22T11:32:44;100102.38;;;25.87;34.41
64053;BME280;50299;49.524;8.536;2023-05-22T11:35:15;100104.06;;;26.17;32.59
64053;BME280;50299;49.524;8.536;2023-05-22T11:37:42;100100.06;;;26.15;34.88
64053;BME280;50299;49.524;8.536;2023-05-22T11:40:15;100094.25;;;26.51;34.67
64053;BME280;50299;49.524;8.536;2023-05-22T11:42:43;100090.97;;;27.07;33.83
64053;BME280;50299;49.524;8.536;2023-05-22T11:45:10;100088.72;;;27.27;33.50
64053;BME280;50299;49.524;8.536;2023-05-22T11:47:37;100089.28;;;27.73;36.37
64053;BME280;50299;49.524;8.536;2023-05-22T11:50:04;100087.09;;;28.25;31.66
64053;BME280;50299;49.524;8.536;2023-05-22T11:52:33;100087.75;;;27.94;29.09
64053;BME280;50299;49.524;8.536;2023-05-22T11:55:03;100083.94;;;27.75;32.81
64053;BME280;50299;49.524;8.536;2023-05-22T11:57:31;100082.63;;;27.89;29.16
64053;BME280;50299;49.524;8.536;2023-05-22T11:59:57;100073.06;;;27.23;28.00
64053;BME280;50299;49.524;8.536;2023-05-22T12:02:24;100073.50;;;27.47;31.08
64053;BME280;50299;49.524;8.536;2023-05-22T12:04:54;100073.22;;;27.92;30.32
64053;BME280;50299;49.524;8.536;2023-05-22T12:07:21;100074.63;;;28.44;29.60
64053;BME280;50299;49.524;8.536;2023-05-22T12:09:49;100074.38;;;28.73;31.62
64053;BME280;50299;49.524;8.536;2023-05-22T12:12:26;100065.47;;;29.24;27.16
64053;BME280;50299;49.524;8.536;2023-05-22T12:14:56;100053.09;;;29.09;27.10
64053;BME280;50299;49.524;8.536;2023-05-22T12:17:22;100057.78;;;28.50;27.96
64053;BME280;50299;49.524;8.536;2023-05-22T12:19:49;100062.44;;;28.57;26.94
64053;BME280;50299;49.524;8.536;2023-05-22T12:22:18;100060.41;;;28.22;27.74
64053;BME280;50299;49.524;8.536;2023-05-22T12:24:45;100053.59;;;28.20;27.17
64053;BME280;50299;49.524;8.536;2023-05-22T12:27:14;100040.59;;;28.53;29.83
64053;BME280;50299;49.524;8.536;2023-05-22T12:29:41;100039.50;;;28.82;28.53
64053;BME280;50299;49.524;8.536;2023-05-22T12:32:09;100039.88;;;28.93;28.09
64053;BME280;50299;49.524;8.536;2023-05-22T12:34:45;100042.06;;;29.20;26.38
64053;BME280;50299;49.524;8.536;2023-05-22T12:37:23;100045.16;;;29.44;28.99
64053;BME280;50299;49.524;8.536;2023-05-22T12:39:57;100046.16;;;29.60;25.99
64053;BME280;50299;49.524;8.536;2023-05-22T12:42:27;100041.13;;;29.73;27.21
64053;BME280;50299;49.524;8.536;2023-05-22T12:44:57;100040.78;;;29.62;27.49
64053;BME280;50299;49.524;8.536;2023-05-22T12:47:26;100039.25;;;29.79;28.00
64053;BME280;50299;49.524;8.536;2023-05-22T12:49:52;100047.78;;;29.88;26.08
64053;BME280;50299;49.524;8.536;2023-05-22T12:52:27;100042.66;;;29.06;27.42
64053;BME280;50299;49.524;8.536;2023-05-22T12:54:54;100046.84;;;28.04;27.35
64053;BME280;50299;49.524;8.536;2023-05-22T12:57:23;100036.38;;;28.14;28.22
64053;BME280;50299;49.524;8.536;2023-05-22T12:59:50;100039.72;;;28.22;27.78
64053;BME280;50299;49.524;8.536;2023-05-22T13:02:17;100039.41;;;28.64;27.47
64053;BME280;50299;49.524;8.536;2023-05-22T13:04:47;100039.59;;;27.91;26.51
64053;BME280;50299;49.524;8.536;2023-05-22T13:07:14;100045.38;;;27.52;28.10
64053;BME280;50299;49.524;8.536;2023-05-22T13:09:40;100035.84;;;28.50;32.44
64053;BME280;50299;49.524;8.536;2023-05-22T13:12:07;100041.09;;;29.14;27.06